Time;durP1;ratioP1;P1;durP2;ratioP2;P2;SDS_P1;SDS_P2;PMS_P1;PMS_P2;Temp;Humidity;BMP_temperature;BMP_pressure;BME280_temperature;BME280_humidity;BME280_pressure;Samples;Min_cycle;Max_cycle;Signal;HPM_P1;HPM_P2
2023/12/05 00:00:49;;;;;;;24.48;12.85;;;4.50;64.20;;;-0.97;100.00;94589.72;4968032;28;20119;-54
2023/12/05 00:03:15;;;;;;;24.92;13.30;;;4.50;64.20;;;-0.96;100.00;94596.53;4964752;28;20033;-56
2023/12/05 00:05:41;;;;;;;26.52;12.93;;;4.50;64.10;;;-0.94;100.00;94589.25;4966766;28;20053;-51
2023/12/05 00:08:07;;;;;;;26.33;12.63;;;4.50;64.10;;;-0.94;100.00;94594.47;4962335;28;20025;-57
2023/12/05 00:10:33;;;;;;;25.58;13.30;;;4.50;64.10;;;-0.93;100.00;94607.34;4965048;28;20030;-58
2023/12/05 00:13:00;;;;;;;25.38;13.48;;;4.50;64.10;;;-0.91;100.00;94604.50;4970253;28;20030;-53
2023/12/05 00:15:26;;;;;;;25.27;13.27;;;4.50;64.20;;;-0.86;100.00;94609.91;4964410;28;20022;-58
2023/12/05 00:17:52;;;;;;;22.90;11.60;;;4.60;64.30;;;-0.84;100.00;94597.41;4967361;28;20026;-55
2023/12/05 00:20:18;;;;;;;25.38;12.68;;;4.60;64.30;;;-0.84;100.00;94586.97;4969223;28;20018;-54
2023/12/05 00:22:44;;;;;;;23.23;11.88;;;4.60;64.30;;;-0.83;100.00;94587.75;4958514;28;20030;-56
2023/12/05 00:25:10;;;;;;;24.00;12.88;;;4.60;64.30;;;-0.82;100.00;94584.13;4962128;28;20045;-53
2023/12/05 00:27:36;;;;;;;29.75;12.82;;;4.60;64.30;;;-0.81;100.00;94594.38;4955436;28;20050;-60
2023/12/05 00:30:03;;;;;;;25.25;12.75;;;4.60;64.30;;;-0.75;100.00;94598.72;4960267;28;20060;-52
2023/12/05 00:32:28;;;;;;;27.08;12.75;;;4.60;64.40;;;-0.80;100.00;94584.72;4964801;28;20037;-55
2023/12/05 00:34:54;;;;;;;25.08;12.52;;;4.60;64.50;;;-0.81;100.00;94583.91;4961838;28;20018;-53
2023/12/05 00:37:20;;;;;;;22.75;11.50;;;4.60;64.60;;;-0.81;100.00;94593.56;4964337;28;20088;-53
2023/12/05 00:39:46;;;;;;;22.90;11.02;;;4.60;64.60;;;-0.82;100.00;94581.50;4957968;28;20421;-51
2023/12/05 00:42:12;;;;;;;23.95;11.85;;;4.60;64.70;;;-0.70;100.00;94591.00;4956593;28;20038;-51
2023/12/05 00:44:38;;;;;;;20.50;10.93;;;4.60;64.80;;;-0.60;100.00;94594.94;4956024;28;20023;-53
2023/12/05 00:47:05;;;;;;;21.40;11.48;;;4.70;64.90;;;-0.54;100.00;94594.84;4964790;28;20041;-51
2023/12/05 00:49:34;;;;;;;24.65;11.65;;;4.70;64.90;;;-0.51;100.00;94576.09;4953504;28;20027;-55
2023/12/05 00:52:00;;;;;;;19.60;10.10;;;4.80;65.00;;;-0.47;100.00;94582.50;4962898;28;20033;-51
2023/12/05 00:54:26;;;;;;;20.52;11.15;;;4.80;64.90;;;-0.48;100.00;94574.88;4956643;28;20153;-52
2023/12/05 00:56:52;;;;;;;17.88;10.48;;;4.80;64.80;;;-0.48;100.00;94572.25;4958933;28;20121;-53
2023/12/05 00:59:18;;;;;;;20.50;11.10;;;4.80;64.70;;;-0.44;100.00;94575.22;4962195;28;20018;-51
2023/12/05 01:01:44;;;;;;;23.25;11.57;;;4.90;64.70;;;-0.47;100.00;94579.06;4959997;28;20035;-51
2023/12/05 01:04:09;;;;;;;19.42;9.63;;;4.90;64.60;;;-0.49;100.00;94571.47;4962676;28;20046;-51
2023/12/05 01:06:35;;;;;;;21.80;11.23;;;4.90;64.60;;;-0.46;100.00;94567.59;4963989;28;20029;-56
2023/12/05 01:09:01;;;;;;;23.85;11.68;;;4.90;64.60;;;-0.45;100.00;94574.44;4963953;28;20050;-57
2023/12/05 01:11:27;;;;;;;21.67;10.65;;;4.90;64.60;;;-0.49;100.00;94573.28;4958434;28;20027;-56
2023/12/05 01:13:53;;;;;;;23.38;10.93;;;4.90;64.60;;;-0.49;100.00;94591.59;4968361;28;20026;-52
2023/12/05 01:16:19;;;;;;;22.35;11.82;;;4.90;64.60;;;-0.56;100.00;94569.97;4959303;28;20054;-52
2023/12/05 01:18:45;;;;;;;19.67;11.60;;;4.90;64.50;;;-0.56;100.00;94573.38;4951915;28;20469;-53
2023/12/05 01:21:10;;;;;;;19.92;10.60;;;4.90;64.60;;;-0.56;100.00;94569.97;4969613;28;20038;-51
2023/12/05 01:23:36;;;;;;;24.10;11.60;;;4.90;64.60;;;-0.57;100.00;94561.28;4957500;28;20389;-54
2023/12/05 01:26:02;;;;;;;20.83;11.20;;;4.90;64.60;;;-0.57;100.00;94552.66;4968233;28;20061;-53
2023/12/05 01:28:28;;;;;;;23.65;11.38;;;4.80;64.50;;;-0.58;100.00;94580.63;4956044;28;20034;-53
2023/12/05 01:30:54;;;;;;;23.10;11.65;;;4.80;64.50;;;-0.59;100.00;94588.72;4968327;28;20026;-56
2023/12/05 01:33:20;;;;;;;20.02;10.43;;;4.80;64.60;;;-0.63;100.00;94588.31;4966744;28;20141;-57
2023/12/05 01:35:45;;;;;;;18.65;10.77;;;4.80;64.60;;;-0.64;100.00;94597.19;4964142;28;20076;-53
2023/12/05 01:38:11;;;;;;;19.88;10.43;;;4.80;64.60;;;-0.62;100.00;94594.38;4964168;28;20033;-51
2023/12/05 01:40:37;;;;;;;20.00;10.38;;;4.80;64.60;;;-0.64;100.00;94580.72;4963371;28;20030;-53
2023/12/05 01:43:03;;;;;;;48.35;12.50;;;4.80;64.70;;;-0.71;100.00;94572.94;4970296;28;20125;-51
2023/12/05 01:45:28;;;;;;;19.00;10.50;;;4.70;64.50;;;-0.76;100.00;94573.56;4969376;28;20113;-53
2023/12/05 01:47:55;;;;;;;23.48;11.82;;;4.70;64.50;;;-0.83;100.00;94590.38;4964934;28;20061;-57
2023/12/05 01:50:29;;;;;;;19.35;10.07;;;4.60;64.50;;;-0.81;100.00;94591.75;4974182;28;20030;-55
2023/12/05 01:53:03;;;;;;;20.65;10.07;;;4.60;64.60;;;-0.84;100.00;94592.19;4950520;28;20014;-53
2023/12/05 01:55:31;;;;;;;19.17;10.48;;;4.60;64.60;;;-0.88;100.00;94591.00;4955504;28;20484;-56
2023/12/05 01:57:59;;;;;;;21.10;9.95;;;4.60;64.60;;;-1.00;100.00;94590.16;4951194;28;20041;-55
2023/12/05 02:00:27;;;;;;;19.70;9.73;;;4.50;64.40;;;-1.06;100.00;94583.97;4968891;28;20507;-53
2023/12/05 02:02:56;;;;;;;20.27;11.20;;;4.50;64.30;;;-1.18;100.00;94594.31;4966953;28;20080;-57
2023/12/05 02:05:24;;;;;;;22.05;10.25;;;4.40;64.20;;;-1.25;100.00;94575.31;4969010;28;20022;-54
2023/12/05 02:07:50;;;;;;;24.92;10.45;;;4.30;64.10;;;-1.33;100.00;94585.22;4964954;28;20030;-54
2023/12/05 02:10:16;;;;;;;20.25;10.90;;;4.20;64.00;;;-1.42;100.00;94584.69;4950660;28;20470;-51
2023/12/05 02:12:41;;;;;;;24.02;10.10;;;4.20;64.00;;;-1.48;100.00;94582.94;4968952;28;20041;-53
2023/12/05 02:15:09;;;;;;;25.20;11.38;;;4.10;64.00;;;-1.59;100.00;94586.25;4966452;28;20025;-57
2023/12/05 02:17:44;;;;;;;27.27;11.30;;;4.00;64.00;;;-1.63;100.00;94591.91;4953095;28;20135;-57
2023/12/05 02:20:38;;;;;;;31.48;12.00;;;4.00;64.20;;;-1.63;100.00;94584.06;4971703;28;20025;-55
2023/12/05 02:23:52;;;;;;;22.80;10.88;;;3.90;64.40;;;-1.60;100.00;94574.97;4944046;28;20034;-52
2023/12/05 02:27:37;;;;;;;37.45;12.48;;;3.90;64.60;;;-1.64;100.00;94566.78;4961927;28;20018;-55
2023/12/05 02:30:04;;;;;;;27.33;11.40;;;3.90;64.90;;;-1.61;100.00;94557.72;4874598;29;20564;-52
2023/12/05 02:32:30;;;;;;;29.13;12.57;;;3.80;65.00;;;-1.61;100.00;94541.25;4960205;28;20052;-52
2023/12/05 02:34:56;;;;;;;23.17;10.82;;;3.80;65.00;;;-1.57;100.00;94550.25;4961735;28;20030;-52
2023/12/05 02:38:14;;;;;;;31.60;13.80;;;3.80;65.20;;;-1.44;100.00;94548.34;4966612;28;20114;-52
2023/12/05 02:41:18;;;;;;;22.80;11.40;;;3.90;65.60;;;-1.33;100.00;94559.09;4964341;28;20436;-56
2023/12/05 02:44:18;;;;;;;26.63;12.00;;;3.90;65.80;;;-1.25;100.00;94567.47;4958986;28;20070;-57
2023/12/05 02:46:49;;;;;;;25.75;11.95;;;3.90;66.00;;;-1.18;100.00;94555.13;4967314;28;20413;-56
2023/12/05 02:49:16;;;;;;;23.88;11.38;;;4.00;66.10;;;-1.05;100.00;94566.47;4960772;28;20026;-54
2023/12/05 02:51:43;;;;;;;17.95;9.82;;;4.10;66.20;;;-0.99;100.00;94570.81;4955794;28;20117;-53
2023/12/05 02:54:09;;;;;;;19.55;10.50;;;4.10;66.30;;;-0.97;100.00;94551.31;4968728;28;20566;-56
2023/12/05 02:56:36;;;;;;;21.70;10.85;;;4.20;66.30;;;-0.91;100.00;94546.19;4961542;28;20031;-54
2023/12/05 02:59:03;;;;;;;17.60;9.32;;;4.30;66.30;;;-0.85;100.00;94548.72;4963837;28;20528;-57
2023/12/05 03:01:29;;;;;;;22.83;10.50;;;4.40;66.40;;;-0.78;100.00;94554.72;4965452;28;20031;-55
2023/12/05 03:03:55;;;;;;;19.45;10.40;;;4.40;66.30;;;-0.73;100.00;94549.59;4965102;28;20023;-56
2023/12/05 03:06:21;;;;;;;17.73;9.98;;;4.50;66.40;;;-0.68;100.00;94562.03;4966593;28;20027;-57
2023/12/05 03:08:46;;;;;;;19.55;9.60;;;4.50;66.30;;;-0.65;100.00;94569.44;4962931;28;20018;-55
2023/12/05 03:11:12;;;;;;;16.75;9.07;;;4.60;66.30;;;-0.58;100.00;94562.31;4967418;28;20430;-53
2023/12/05 03:13:41;;;;;;;18.95;9.70;;;4.60;66.40;;;-0.55;100.00;94555.84;4970865;28;20022;-54
2023/12/05 03:16:08;;;;;;;18.80;9.30;;;4.70;66.40;;;-0.50;100.00;94563.84;4968989;28;20049;-53
2023/12/05 03:18:34;;;;;;;17.95;9.82;;;4.80;66.40;;;-0.42;100.00;94555.69;4967279;28;20394;-57
2023/12/05 03:21:00;;;;;;;16.15;8.88;;;4.80;66.40;;;-0.37;100.00;94561.06;4965134;28;20034;-53
2023/12/05 03:23:27;;;;;;;16.70;8.73;;;4.80;66.40;;;-0.33;100.00;94554.34;4964540;28;20052;-53
2023/12/05 03:25:52;;;;;;;16.58;9.20;;;4.90;66.40;;;-0.30;100.00;94567.00;4967877;28;20081;-52
2023/12/05 03:28:18;;;;;;;15.70;8.98;;;4.90;66.30;;;-0.30;100.00;94563.59;4969389;28;20018;-59
2023/12/05 03:30:44;;;;;;;18.42;8.93;;;5.00;66.30;;;-0.21;100.00;94572.72;4963313;28;20022;-57
2023/12/05 03:33:10;;;;;;;15.73;8.25;;;5.00;66.40;;;-0.08;100.00;94574.38;4951955;28;20042;-53
2023/12/05 03:35:36;;;;;;;13.68;8.50;;;5.10;66.60;;;0.02;100.00;94581.69;4959697;28;20083;-54
2023/12/05 03:38:01;;;;;;;15.82;9.23;;;5.20;66.70;;;0.08;100.00;94591.25;4967932;28;20050;-57
2023/12/05 03:40:27;;;;;;;15.88;8.43;;;5.20;66.70;;;0.11;100.00;94586.38;4967292;28;20117;-51
2023/12/05 03:42:53;;;;;;;12.20;7.03;;;5.30;66.70;;;0.19;100.00;94591.31;4963792;28;20063;-56
2023/12/05 03:45:19;;;;;;;16.15;8.60;;;5.30;66.60;;;0.23;100.00;94599.50;4966379;28;20101;-55
2023/12/05 03:47:45;;;;;;;16.42;9.10;;;5.40;66.60;;;0.16;100.00;94597.00;4958434;28;20571;-55
2023/12/05 03:50:12;;;;;;;14.48;8.20;;;5.40;66.40;;;0.24;100.00;94601.09;4966152;28;20022;-56
2023/12/05 03:52:37;;;;;;;17.67;8.98;;;5.40;66.30;;;0.28;100.00;94598.81;4966355;28;20030;-57
2023/12/05 03:55:04;;;;;;;13.27;8.20;;;5.50;66.40;;;0.32;100.00;94600.78;4964417;28;20032;-52
2023/12/05 03:57:30;;;;;;;14.25;8.07;;;5.50;66.40;;;0.38;100.00;94599.91;4957166;28;20023;-54
2023/12/05 03:59:56;;;;;;;15.10;8.60;;;5.50;66.40;;;0.45;100.00;94597.16;4959682;28;20061;-55
2023/12/05 04:02:21;;;;;;;13.10;7.47;;;5.60;66.50;;;0.51;100.00;94603.34;4965283;28;20031;-54
2023/12/05 04:04:47;;;;;;;13.30;8.65;;;5.60;66.50;;;0.52;100.00;94603.09;4958807;28;20022;-56
2023/12/05 04:07:14;;;;;;;14.68;8.27;;;5.60;66.50;;;0.57;100.00;94605.06;4961679;28;20057;-55
2023/12/05 04:09:40;;;;;;;14.10;8.43;;;5.70;66.50;;;0.63;100.00;94604.16;4960436;28;20022;-56
2023/12/05 04:12:06;;;;;;;37.97;8.63;;;5.70;66.60;;;0.66;100.00;94599.25;4962989;28;20455;-58
2023/12/05 04:14:32;;;;;;;11.05;7.10;;;5.70;66.60;;;0.63;100.00;94596.28;4964775;28;20029;-58
2023/12/05 04:16:58;;;;;;;13.07;7.43;;;5.80;66.50;;;0.55;100.00;94610.50;4964924;28;20045;-57
2023/12/05 04:19:23;;;;;;;13.05;7.63;;;5.70;66.20;;;0.45;100.00;94603.19;4963541;28;20105;-59
2023/12/05 04:21:49;;;;;;;14.93;7.70;;;5.80;66.20;;;0.45;100.00;94610.28;4957301;28;20031;-58
2023/12/05 04:24:15;;;;;;;13.00;7.47;;;5.80;66.10;;;0.44;100.00;94612.09;4979947;23;20076;-54
2023/12/05 04:26:41;;;;;;;21.00;8.45;;;5.70;66.00;;;0.36;100.00;94604.56;4979977;28;20037;-54
2023/12/05 04:29:07;;;;;;;35.75;9.70;;;5.70;65.90;;;0.36;100.00;94596.69;4963544;28;20022;-56
2023/12/05 04:31:32;;;;;;;14.77;7.68;;;5.70;65.90;;;0.38;100.00;94597.28;4954917;28;20038;-57
2023/12/05 04:33:58;;;;;;;27.45;9.10;;;5.70;66.00;;;0.38;100.00;94588.63;4979850;28;20080;-52
2023/12/05 04:36:24;;;;;;;16.05;8.70;;;5.70;66.00;;;0.41;100.00;94586.34;4954378;28;20081;-51
2023/12/05 04:38:50;;;;;;;15.55;8.40;;;5.70;66.10;;;0.41;100.00;94590.78;4959513;28;20457;-54
2023/12/05 04:41:16;;;;;;;14.25;7.78;;;5.70;66.20;;;0.46;100.00;94598.75;4963591;28;20554;-52
2023/12/05 04:43:42;;;;;;;14.05;7.93;;;5.70;66.20;;;0.53;100.00;94588.16;4979924;28;20022;-51
2023/12/05 04:46:08;;;;;;;19.58;8.00;;;5.70;66.40;;;0.57;100.00;94584.88;4977483;28;20029;-54
2023/12/05 04:48:34;;;;;;;11.60;6.78;;;5.70;66.60;;;0.57;100.00;94582.25;4976198;28;20417;-52
2023/12/05 04:50:59;;;;;;;14.07;7.45;;;5.80;66.60;;;0.57;100.00;94592.75;4982634;28;20431;-54
2023/12/05 04:53:25;;;;;;;31.85;7.30;;;5.80;66.40;;;0.55;100.00;94589.53;4976290;28;20018;-53
2023/12/05 04:55:51;;;;;;;13.90;6.80;;;5.80;66.40;;;0.53;100.00;94590.78;4971217;28;20026;-55
2023/12/05 04:58:17;;;;;;;10.45;6.60;;;5.80;66.40;;;0.52;100.00;94576.09;4974376;28;20023;-55
2023/12/05 05:00:42;;;;;;;75.80;8.80;;;5.80;66.30;;;0.51;100.00;94571.88;4963596;28;20543;-53
2023/12/05 05:03:08;;;;;;;12.82;6.18;;;5.80;66.30;;;0.52;100.00;94579.50;4981020;28;20066;-52
2023/12/05 05:05:34;;;;;;;11.77;6.15;;;5.80;66.30;;;0.57;100.00;94581.47;4980161;28;20030;-55
2023/12/05 05:08:00;;;;;;;12.65;5.95;;;5.80;66.40;;;0.63;100.00;94588.44;4962139;28;20038;-53
2023/12/05 05:10:26;;;;;;;13.05;6.00;;;5.80;66.70;;;0.75;100.00;94596.28;4977225;28;20531;-53
2023/12/05 05:12:52;;;;;;;9.80;5.10;;;5.90;67.00;;;0.83;100.00;94598.56;4974235;28;20026;-56
2023/12/05 05:15:17;;;;;;;16.13;4.90;;;5.90;67.20;;;0.88;100.00;94596.09;4981450;28;20026;-54
2023/12/05 05:17:43;;;;;;;8.18;5.13;;;6.00;67.30;;;0.93;100.00;94611.91;4980535;28;20472;-58
2023/12/05 05:20:10;;;;;;;21.73;9.30;;;6.00;67.80;;;0.85;100.00;94607.03;4978455;28;20476;-54
2023/12/05 05:22:35;;;;;;;19.75;9.20;;;6.00;67.30;;;0.80;100.00;94605.06;4976828;28;20115;-56
2023/12/05 05:25:01;;;;;;;13.98;7.70;;;6.10;67.00;;;0.66;100.00;94601.88;4970665;28;20069;-52
2023/12/05 05:27:29;;;;;;;15.80;8.00;;;6.00;66.70;;;0.65;100.00;94609.94;4982757;28;20473;-56
2023/12/05 05:29:54;;;;;;;15.52;7.18;;;6.00;66.50;;;0.60;100.00;94604.59;4979809;28;20033;-54
2023/12/05 05:32:23;;;;;;;22.23;8.85;;;6.00;66.40;;;0.57;100.00;94605.84;4963053;28;20025;-54
2023/12/05 05:34:48;;;;;;;12.25;7.15;;;6.00;66.40;;;0.50;100.00;94607.75;4980253;28;20022;-53
2023/12/05 05:37:14;;;;;;;12.63;6.57;;;5.90;66.40;;;0.51;100.00;94612.00;4980663;28;20471;-55
2023/12/05 05:39:40;;;;;;;12.18;6.88;;;5.90;66.40;;;0.56;100.00;94621.78;4959419;28;20033;-50
2023/12/05 05:42:06;;;;;;;10.75;5.55;;;5.90;66.60;;;0.62;100.00;94615.66;4982695;28;20108;-50
2023/12/05 05:44:32;;;;;;;11.80;5.60;;;5.90;66.70;;;0.68;100.00;94620.00;4974137;28;20026;-54
2023/12/05 05:46:58;;;;;;;7.97;4.38;;;5.90;66.90;;;0.77;100.00;94609.97;4983285;28;20036;-56
2023/12/05 05:49:24;;;;;;;79.50;7.70;;;5.90;67.10;;;0.83;100.00;94612.47;4976495;28;20053;-51
2023/12/05 05:51:50;;;;;;;8.10;3.97;;;6.00;67.40;;;0.78;100.00;94620.22;4979799;28;20030;-51
2023/12/05 05:54:16;;;;;;;9.85;4.88;;;6.00;67.30;;;0.75;100.00;94630.38;4977155;28;20026;-55
2023/12/05 05:56:41;;;;;;;10.52;3.90;;;6.00;67.20;;;0.67;100.00;94631.50;4975684;28;20484;-55
2023/12/05 05:59:07;;;;;;;10.75;4.55;;;6.00;67.00;;;0.65;100.00;94631.72;4980292;28;20393;-56
2023/12/05 06:01:33;;;;;;;12.38;4.97;;;6.00;66.80;;;0.64;100.00;94635.38;4981125;28;20026;-55
2023/12/05 06:03:59;;;;;;;10.10;4.97;;;6.00;66.90;;;0.69;100.00;94637.34;4980600;28;20080;-54
2023/12/05 06:06:25;;;;;;;11.40;4.72;;;6.00;66.90;;;0.61;100.00;94638.44;4975383;28;20037;-54
2023/12/05 06:08:51;;;;;;;23.67;5.72;;;6.00;66.90;;;0.56;100.00;94637.50;4978546;28;20053;-52
2023/12/05 06:11:17;;;;;;;10.52;5.15;;;6.00;66.80;;;0.58;100.00;94644.13;4961682;28;20022;-54
2023/12/05 06:13:42;;;;;;;10.98;6.05;;;6.00;66.80;;;0.55;100.00;94639.34;4976031;28;20084;-52
2023/12/05 06:16:09;;;;;;;10.43;4.80;;;6.00;66.90;;;0.60;100.00;94639.47;4986184;28;20021;-55
2023/12/05 06:18:37;;;;;;;18.00;5.50;;;5.90;66.90;;;0.63;100.00;94646.09;4954648;28;20030;-55
2023/12/05 06:21:03;;;;;;;8.82;4.93;;;5.90;67.00;;;0.59;100.00;94643.09;4960884;28;20491;-52
2023/12/05 06:23:29;;;;;;;36.42;5.05;;;5.90;67.00;;;0.61;100.00;94648.94;4974319;28;20037;-55
2023/12/05 06:25:55;;;;;;;10.35;4.65;;;5.90;67.00;;;0.59;100.00;94643.09;4976650;28;20132;-58
2023/12/05 06:28:20;;;;;;;9.10;4.47;;;5.90;66.90;;;0.59;100.00;94644.94;4974027;28;20030;-56
2023/12/05 06:30:46;;;;;;;7.70;4.65;;;5.90;66.90;;;0.60;100.00;94646.53;4976777;28;20079;-57
2023/12/05 06:33:12;;;;;;;54.17;6.13;;;5.90;66.90;;;0.60;100.00;94644.72;4961516;28;20721;-57
2023/12/05 06:35:38;;;;;;;11.25;5.18;;;5.90;66.90;;;0.60;100.00;94643.91;4978292;28;20473;-59
2023/12/05 06:38:04;;;;;;;12.23;4.60;;;5.90;66.90;;;0.60;100.00;94651.78;4974039;28;20893;-57
2023/12/05 06:40:30;;;;;;;12.73;5.45;;;5.90;67.00;;;0.62;100.00;94653.13;4976604;28;20057;-57
2023/12/05 06:42:55;;;;;;;10.43;5.65;;;5.90;67.00;;;0.65;100.00;94649.28;4978269;28;20045;-59
2023/12/05 06:45:21;;;;;;;11.27;5.65;;;6.00;67.10;;;0.65;100.00;94655.31;4971796;28;20018;-59
2023/12/05 06:47:47;;;;;;;14.57;5.40;;;6.00;67.20;;;0.66;100.00;94648.25;4971661;28;20056;-58
2023/12/05 06:50:15;;;;;;;8.98;4.85;;;6.00;67.10;;;0.64;100.00;94640.63;4973657;28;20018;-57
2023/12/05 06:52:41;;;;;;;9.45;5.40;;;6.00;67.10;;;0.63;100.00;94635.59;4973007;28;20121;-57
2023/12/05 06:55:09;;;;;;;30.35;5.95;;;6.00;67.00;;;0.60;100.00;94630.81;4967421;28;20451;-56
2023/12/05 06:57:35;;;;;;;30.75;5.88;;;6.00;67.00;;;0.56;100.00;94624.41;4942334;28;23708;-57
2023/12/05 07:00:02;;;;;;;16.67;5.97;;;6.00;67.00;;;0.58;100.00;94620.53;4953866;28;20499;-57
2023/12/05 07:02:28;;;;;;;11.25;6.05;;;6.00;66.90;;;0.60;100.00;94617.72;4970735;28;20077;-57
2023/12/05 07:04:57;;;;;;;14.80;6.35;;;6.00;67.00;;;0.66;100.00;94629.91;4961061;28;20022;-56
2023/12/05 07:07:24;;;;;;;14.68;6.15;;;6.00;67.10;;;0.73;100.00;94624.56;4971240;28;20085;-58
2023/12/05 07:09:51;;;;;;;11.38;5.95;;;6.00;67.30;;;0.77;100.00;94634.34;4956237;28;21005;-57
2023/12/05 07:12:17;;;;;;;27.58;7.03;;;6.00;67.40;;;0.79;100.00;94634.94;4955936;28;20018;-59
2023/12/05 07:14:43;;;;;;;15.13;6.43;;;6.10;67.40;;;0.80;100.00;94644.41;4978215;28;20468;-56
2023/12/05 07:17:08;;;;;;;11.43;6.57;;;6.10;67.40;;;0.89;100.00;94655.34;4969247;28;20036;-58
2023/12/05 07:19:34;;;;;;;16.48;6.65;;;6.20;67.70;;;0.98;100.00;94655.81;4969618;28;20053;-59
2023/12/05 07:22:00;;;;;;;12.48;5.32;;;6.20;67.70;;;0.97;100.00;94662.88;4967858;28;20037;-57
2023/12/05 07:24:26;;;;;;;10.18;5.53;;;6.30;67.70;;;1.02;100.00;94668.25;4967155;28;20049;-58
2023/12/05 07:26:52;;;;;;;14.02;6.30;;;6.40;67.60;;;1.09;100.00;94681.25;4973866;28;20127;-57
2023/12/05 07:29:18;;;;;;;9.45;5.13;;;6.40;67.60;;;1.17;100.00;94682.75;4977421;28;20029;-58
2023/12/05 07:31:43;;;;;;;9.80;5.10;;;6.50;67.60;;;1.19;100.00;94676.22;4969596;28;20384;-61
2023/12/05 07:34:09;;;;;;;8.65;5.38;;;6.60;67.60;;;1.28;100.00;94681.94;4975781;28;20050;-58
2023/12/05 07:36:41;;;;;;;7.63;4.90;;;6.60;67.60;;;1.35;100.00;94688.69;4969559;28;20046;-59
2023/12/05 07:39:09;;;;;;;9.25;5.38;;;6.70;67.70;;;1.42;100.00;94691.19;4966775;28;20025;-58
2023/12/05 07:41:35;;;;;;;9.13;5.82;;;6.80;67.60;;;1.46;100.00;94689.69;4976731;28;20034;-58
2023/12/05 07:44:01;;;;;;;9.55;5.18;;;6.90;67.60;;;1.54;100.00;94689.38;4970235;28;20389;-58
2023/12/05 07:46:28;;;;;;;10.93;4.40;;;6.90;67.50;;;1.55;100.00;94696.19;4967185;28;20030;-59
2023/12/05 07:48:54;;;;;;;9.98;4.53;;;7.00;67.30;;;1.39;100.00;94687.19;4971993;28;20487;-60
2023/12/05 07:51:20;;;;;;;7.20;3.95;;;7.10;67.10;;;1.37;100.00;94691.06;4975807;28;20061;-57
2023/12/05 07:53:53;;;;;;;13.38;5.30;;;7.20;66.80;;;1.40;100.00;94701.13;4957343;28;20461;-58
2023/12/05 07:56:19;;;;;;;7.85;4.38;;;7.20;66.60;;;1.48;100.00;94694.75;4977650;28;20041;-57
2023/12/05 07:58:45;;;;;;;7.88;4.78;;;7.30;66.40;;;1.50;100.00;94697.91;4957037;28;20029;-60
2023/12/05 08:01:12;;;;;;;6.88;4.53;;;7.30;66.30;;;1.54;100.00;94707.75;4958796;28;20046;-60
2023/12/05 08:03:38;;;;;;;11.10;5.78;;;7.40;66.30;;;1.61;100.00;94715.50;4968846;28;20025;-60
2023/12/05 08:06:04;;;;;;;13.02;7.10;;;7.40;66.20;;;1.67;100.00;94709.31;4973164;28;20413;-61
2023/12/05 08:08:31;;;;;;;8.48;4.93;;;7.50;66.10;;;1.72;100.00;94711.25;4973975;28;20063;-59
2023/12/05 08:10:58;;;;;;;11.02;3.60;;;7.50;66.10;;;1.74;100.00;94724.97;4974535;28;20188;-57
2023/12/05 08:13:25;;;;;;;7.97;3.53;;;7.60;66.20;;;1.79;100.00;94725.88;4973493;28;20029;-60
2023/12/05 08:15:52;;;;;;;4.65;2.63;;;7.70;67.00;;;1.89;100.00;94725.28;4974684;28;20026;-54
2023/12/05 08:18:18;;;;;;;3.35;2.40;;;7.70;66.10;;;1.96;100.00;94735.66;4969181;28;20469;-57
2023/12/05 08:20:44;;;;;;;4.53;2.90;;;7.80;66.10;;;2.04;100.00;94741.38;4962269;28;20130;-60
2023/12/05 08:23:12;;;;;;;5.32;2.75;;;7.90;66.10;;;2.14;100.00;94745.22;4975218;28;20050;-60
2023/12/05 08:25:37;;;;;;;3.53;2.35;;;8.00;66.10;;;2.27;100.00;94753.66;4954741;28;20448;-60
2023/12/05 08:28:04;;;;;;;2.67;2.28;;;8.10;66.00;;;2.37;100.00;94750.41;4973360;28;20030;-58
2023/12/05 08:30:30;;;;;;;4.35;2.13;;;8.20;65.90;;;2.55;100.00;94749.44;4973564;28;20049;-58
2023/12/05 08:32:59;;;;;;;4.15;2.38;;;8.40;65.70;;;2.71;100.00;94753.16;4976665;28;20045;-56
2023/12/05 08:35:25;;;;;;;3.53;2.17;;;8.70;65.40;;;2.84;100.00;94747.59;4975641;28;20026;-56
2023/12/05 08:37:51;;;;;;;5.85;2.85;;;8.90;65.00;;;2.94;100.00;94745.16;4977428;28;20024;-56
2023/12/05 08:40:17;;;;;;;9.57;3.00;;;9.10;64.60;;;3.06;100.00;94750.34;4974725;28;20523;-60
2023/12/05 08:42:44;;;;;;;3.38;2.50;;;9.30;64.20;;;3.17;100.00;94748.72;4961659;28;20105;-55
2023/12/05 08:45:11;;;;;;;5.30;2.50;;;9.50;63.80;;;3.28;100.00;94752.28;4975327;28;20026;-58
2023/12/05 08:47:38;;;;;;;3.00;2.17;;;9.60;63.30;;;3.39;100.00;94751.44;4960010;28;20088;-53
2023/12/05 08:50:06;;;;;;;3.53;2.05;;;9.80;63.00;;;3.47;100.00;94746.53;4975534;28;20228;-56
2023/12/05 08:52:32;;;;;;;6.00;2.75;;;9.90;62.60;;;3.48;100.00;94747.34;4972170;28;20106;-55
2023/12/05 08:55:00;;;;;;;2.75;1.92;;;10.00;62.30;;;3.45;100.00;94746.00;4958039;28;20030;-56
2023/12/05 08:57:26;;;;;;;5.57;2.40;;;10.10;62.00;;;3.57;100.00;94747.72;4967404;28;20117;-56
2023/12/05 08:59:53;;;;;;;2.63;2.20;;;10.20;61.80;;;3.56;100.00;94751.41;4979630;28;20029;-54
2023/12/05 09:02:22;;;;;;;4.47;2.22;;;10.30;61.50;;;3.46;100.00;94749.41;4967564;28;20481;-56
2023/12/05 09:04:47;;;;;;;6.68;2.70;;;10.40;61.00;;;3.32;100.00;94740.25;4976909;28;20053;-54
2023/12/05 09:07:14;;;;;;;4.50;2.53;;;10.40;60.90;;;3.24;100.00;94742.25;4968951;28;20029;-55
2023/12/05 09:09:41;;;;;;;6.07;3.10;;;10.40;60.50;;;3.45;100.00;94748.63;4975423;28;20133;-54
2023/12/05 09:12:08;;;;;;;4.07;2.50;;;10.60;60.40;;;3.72;100.00;94753.22;4963806;28;20108;-57
2023/12/05 09:14:34;;;;;;;41.20;21.88;;;10.90;60.30;;;4.07;100.00;94760.03;4955395;28;20456;-55
2023/12/05 09:17:01;;;;;;;18.33;8.57;;;11.50;59.90;;;4.23;100.00;94764.47;4980672;28;20026;-55
2023/12/05 09:19:27;;;;;;;53.45;27.10;;;11.80;59.30;;;4.39;100.00;94760.97;4955182;28;20018;-58
2023/12/05 09:21:53;;;;;;;9.10;5.22;;;11.80;59.00;;;4.63;100.00;94774.69;4957401;28;20085;-56
2023/12/05 09:24:19;;;;;;;5.60;3.00;;;11.80;58.90;;;4.83;100.00;94768.06;4979883;28;20038;-57
2023/12/05 09:26:45;;;;;;;3.38;2.40;;;12.00;58.90;;;5.01;99.99;94777.47;4977986;28;20036;-59
2023/12/05 09:29:10;;;;;;;5.45;3.05;;;12.30;58.70;;;5.30;98.38;94780.69;4982644;28;20025;-58
2023/12/05 09:31:36;;;;;;;4.65;2.60;;;12.60;58.30;;;5.38;96.21;94782.84;4949329;28;20058;-55
2023/12/05 09:34:03;;;;;;;4.80;2.33;;;12.90;57.80;;;5.41;93.99;94777.06;4963466;28;20022;-57
2023/12/05 09:36:30;;;;;;;4.68;2.50;;;13.10;57.20;;;5.40;93.81;94782.59;4975233;28;20113;-53
2023/12/05 09:38:56;;;;;;;6.97;2.63;;;13.20;56.80;;;5.21;93.11;94798.81;4969736;28;20494;-56
2023/12/05 09:41:23;;;;;;;3.70;2.55;;;13.20;56.30;;;5.12;93.52;94789.75;4974612;28;20038;-53
2023/12/05 09:43:51;;;;;;;3.55;2.00;;;13.10;56.10;;;4.97;93.54;94784.31;4955999;28;20076;-56
2023/12/05 09:46:21;;;;;;;3.30;2.63;;;13.10;55.70;;;5.21;92.54;94779.53;4960942;28;20494;-56
2023/12/05 09:48:50;;;;;;;3.22;2.10;;;13.50;55.30;;;5.36;90.99;94778.84;4979322;28;20022;-58
2023/12/05 09:51:17;;;;;;;3.00;2.70;;;14.30;54.40;;;6.19;87.38;94772.09;4982663;28;20076;-57
2023/12/05 09:53:48;;;;;;;2.42;1.80;;;15.60;53.10;;;5.98;85.69;94773.81;4979438;28;20022;-55
2023/12/05 09:56:14;;;;;;;1.70;1.60;;;16.00;51.30;;;5.69;87.25;94767.25;4950119;28;20033;-55
2023/12/05 09:58:44;;;;;;;3.72;2.10;;;16.00;50.60;;;5.72;88.05;94770.16;4953175;28;20023;-54
2023/12/05 10:01:17;;;;;;;3.17;1.70;;;15.90;49.80;;;5.57;87.25;94772.69;4957274;28;20479;-54
2023/12/05 10:03:58;;;;;;;2.70;1.92;;;15.70;49.40;;;5.56;88.32;94776.41;4967644;28;20025;-53
2023/12/05 10:06:31;;;;;;;2.97;2.03;;;15.50;49.10;;;5.63;88.22;94770.91;4960362;28;20412;-54
2023/12/05 10:09:00;;;;;;;2.65;1.92;;;15.30;49.40;;;5.69;88.55;94762.75;4960195;28;20027;-56
2023/12/05 10:11:29;;;;;;;4.32;2.15;;;15.00;49.60;;;5.68;87.72;94760.38;4974524;28;20022;-57
2023/12/05 10:13:57;;;;;;;4.20;1.92;;;14.70;49.90;;;5.70;88.15;94761.72;4961140;28;20401;-58
2023/12/05 10:16:27;;;;;;;1.88;1.73;;;14.50;50.20;;;5.69;88.06;94768.03;4960667;28;20026;-57
2023/12/05 10:18:53;;;;;;;2.65;2.35;;;14.50;50.40;;;6.45;85.27;94762.41;4973269;28;20026;-57